Willow Lake, South Dakota
Current Conditions -  °F | °C
As of 1:53 PM on Wednesday 17 Dec 2014 (Local Time) from KATY Reporting Station
Clear Clear  
Wind Chill: 18°   Ceiling: Unl
Heat Index: 18°   Visibility: 10mi
Dew Point: 12°   Wind: 3mph
Humidity: 78%   Direction: 300°WNW
Pressure: 30.24"   Gusts: NA
Location:  44.63°N, 97.64°W
Report Text: KATY 171953Z AUTO 30003KT 10SM CLR M08/M11 A3024 RMK AO2 SLP280 T10781111
Loading
Personal Weather Stations






























Interactive Weather Map New forecast layout! Learn more

10-Day Weather Forecast

Advertisements
Track Severe Weather on mobile